Time;durP1;ratioP1;P1;durP2;ratioP2;P2;SDS_P1;SDS_P2;PMS_P1;PMS_P2;Temp;Humidity;BMP_temperature;BMP_pressure;BME280_temperature;BME280_humidity;BME280_pressure;Samples;Min_cycle;Max_cycle;Signal;HPM_P1;HPM_P2
2022/01/05 00:01:35;;;;;;;16.33;2.70;;;5.40;99.90;;;;;;4209722;28;20080;-80
2022/01/05 00:03:38;;;;;;;17.02;3.55;;;5.40;99.90;;;;;;4209837;28;20052;-79
2022/01/05 00:05:40;;;;;;;16.27;3.10;;;5.40;99.90;;;;;;4208578;28;20052;-78
2022/01/05 00:07:42;;;;;;;14.50;4.00;;;5.40;99.90;;;;;;4209366;28;20070;-78
2022/01/05 00:09:44;;;;;;;16.45;3.30;;;5.70;99.90;;;;;;4209729;28;20044;-78
2022/01/05 00:11:46;;;;;;;22.73;4.18;;;5.80;99.90;;;;;;4209582;28;20527;-77
2022/01/05 00:13:49;;;;;;;21.38;4.82;;;5.90;99.90;;;;;;4209342;28;20539;-78
2022/01/05 00:15:51;;;;;;;19.70;4.13;;;5.80;99.90;;;;;;4242999;27;20063;-79
2022/01/05 00:17:53;;;;;;;22.65;4.03;;;5.80;99.90;;;;;;4198975;28;20451;-78
2022/01/05 00:19:55;;;;;;;19.42;2.60;;;5.80;99.90;;;;;;4198630;28;20110;-77
2022/01/05 00:21:57;;;;;;;24.00;5.53;;;5.70;99.90;;;;;;4214722;28;20055;-78
2022/01/05 00:23:59;;;;;;;21.20;2.42;;;5.70;99.90;;;;;;4208359;28;20537;-78
2022/01/05 00:26:03;;;;;;;17.20;2.38;;;5.60;99.90;;;;;;4204979;28;20526;-77
2022/01/05 00:28:05;;;;;;;12.05;1.98;;;5.50;99.90;;;;;;4232447;28;20048;-78
2022/01/05 00:30:08;;;;;;;15.48;2.60;;;5.40;99.90;;;;;;4241914;27;20051;-78
2022/01/05 00:32:10;;;;;;;16.85;2.95;;;5.40;99.90;;;;;;4233041;28;20054;-78
2022/01/05 00:34:12;;;;;;;11.75;2.85;;;5.30;99.90;;;;;;4221978;28;20056;-78
2022/01/05 00:36:14;;;;;;;16.15;2.55;;;5.20;99.90;;;;;;4214549;28;20047;-77
2022/01/05 00:38:16;;;;;;;17.40;2.85;;;5.20;99.90;;;;;;4215088;28;20059;-77
2022/01/05 00:40:18;;;;;;;10.90;2.83;;;5.20;99.90;;;;;;4214895;28;20055;-80
2022/01/05 00:42:21;;;;;;;18.98;3.60;;;5.30;99.90;;;;;;4212782;28;20097;-78
2022/01/05 00:44:24;;;;;;;20.90;3.88;;;5.40;99.90;;;;;;4215625;28;20048;-78
2022/01/05 00:46:26;;;;;;;16.23;2.60;;;5.50;99.90;;;;;;4214578;28;20101;-78
2022/01/05 00:48:30;;;;;;;16.85;2.10;;;5.40;99.90;;;;;;4197971;28;20136;-78
2022/01/05 00:50:32;;;;;;;18.55;3.70;;;5.20;99.90;;;;;;4197919;28;20430;-78
2022/01/05 00:52:34;;;;;;;17.75;3.58;;;5.10;99.90;;;;;;4196882;28;20052;-79
2022/01/05 00:54:36;;;;;;;22.67;2.78;;;5.00;99.90;;;;;;4197323;28;20086;-77
2022/01/05 00:56:38;;;;;;;14.63;2.17;;;5.00;99.90;;;;;;4214312;28;20059;-80
2022/01/05 00:58:40;;;;;;;13.27;2.63;;;5.20;99.90;;;;;;4198049;28;20435;-78
2022/01/05 01:00:42;;;;;;;13.95;2.03;;;5.30;99.90;;;;;;4199791;28;20118;-78
2022/01/05 01:02:44;;;;;;;13.10;2.25;;;5.60;99.90;;;;;;4207667;28;20440;-78
2022/01/05 01:04:46;;;;;;;12.25;2.55;;;5.70;99.90;;;;;;4197575;28;20059;-81
2022/01/05 01:06:48;;;;;;;8.15;1.52;;;5.70;99.90;;;;;;4197444;28;20059;-77
2022/01/05 01:08:50;;;;;;;8.75;1.02;;;5.50;99.90;;;;;;4227903;27;20641;-78
2022/01/05 01:10:53;;;;;;;8.27;1.25;;;5.40;99.90;;;;;;4213931;28;20404;-79
2022/01/05 01:12:55;;;;;;;15.80;3.30;;;5.30;99.90;;;;;;4214024;28;20082;-76
2022/01/05 01:14:57;;;;;;;8.18;2.63;;;5.20;99.90;;;;;;4214256;28;20093;-78
2022/01/05 01:16:59;;;;;;;19.50;5.80;;;5.10;99.90;;;;;;4218169;28;20048;-78
2022/01/05 01:19:00;;;;;;;16.92;4.40;;;5.10;99.90;;;;;;4213982;28;20055;-76
2022/01/05 01:21:03;;;;;;;8.02;2.05;;;5.00;99.90;;;;;;4213749;28;20060;-78
2022/01/05 01:23:05;;;;;;;10.85;2.08;;;5.20;99.90;;;;;;4213978;28;20142;-78
2022/01/05 01:25:08;;;;;;;15.27;3.30;;;5.60;99.90;;;;;;4211327;28;20104;-78
2022/01/05 01:27:10;;;;;;;16.77;3.80;;;5.80;99.90;;;;;;4210291;28;20049;-78
2022/01/05 01:29:12;;;;;;;14.07;2.22;;;5.90;99.90;;;;;;4214005;28;20096;-79
2022/01/05 01:31:14;;;;;;;11.93;2.03;;;6.00;99.90;;;;;;4197124;28;20045;-77
2022/01/05 01:33:16;;;;;;;11.30;1.85;;;5.90;99.90;;;;;;4203666;28;20461;-77
2022/01/05 01:35:18;;;;;;;11.68;2.83;;;5.70;99.90;;;;;;4213824;28;20137;-79
2022/01/05 01:37:20;;;;;;;9.55;1.70;;;5.50;99.90;;;;;;4212233;28;20069;-79
2022/01/05 01:39:22;;;;;;;8.73;1.67;;;5.40;99.90;;;;;;4202814;28;20069;-78
2022/01/05 01:41:24;;;;;;;19.45;2.10;;;5.20;99.90;;;;;;4199005;28;20052;-81
2022/01/05 01:43:26;;;;;;;16.25;2.92;;;5.00;99.90;;;;;;4217506;28;20048;-83
2022/01/05 01:45:28;;;;;;;25.42;3.70;;;4.90;99.90;;;;;;4215052;28;20047;-79
2022/01/05 01:47:30;;;;;;;15.45;2.67;;;4.90;99.90;;;;;;4210932;28;20044;-78
2022/01/05 01:49:32;;;;;;;23.65;3.50;;;5.00;99.90;;;;;;4213248;28;20710;-80
2022/01/05 01:51:34;;;;;;;14.15;2.13;;;5.30;99.90;;;;;;4213954;28;20580;-78
2022/01/05 01:53:36;;;;;;;24.60;3.13;;;5.70;99.90;;;;;;4196895;28;20079;-78
2022/01/05 01:55:39;;;;;;;23.92;3.05;;;5.90;99.90;;;;;;4210881;28;20071;-79
2022/01/05 01:57:43;;;;;;;25.73;3.88;;;5.90;99.90;;;;;;4223375;28;20044;-78
2022/01/05 01:59:46;;;;;;;21.02;3.55;;;6.10;99.90;;;;;;4214746;28;20052;-79
2022/01/05 02:01:47;;;;;;;18.30;2.55;;;6.20;99.90;;;;;;4230408;28;20507;-79
2022/01/05 02:03:50;;;;;;;14.15;2.00;;;6.30;99.90;;;;;;4229865;28;20071;-79
2022/01/05 02:05:52;;;;;;;11.23;1.90;;;6.20;99.90;;;;;;4233647;27;20051;-78
2022/01/05 02:07:54;;;;;;;14.48;2.35;;;6.10;99.90;;;;;;4212784;28;20075;-83
2022/01/05 02:09:56;;;;;;;13.98;2.05;;;6.00;99.90;;;;;;4196566;28;20087;-78
2022/01/05 02:11:57;;;;;;;9.75;2.00;;;5.90;99.90;;;;;;4214505;28;20070;-79
2022/01/05 02:13:59;;;;;;;15.48;2.17;;;5.80;99.90;;;;;;4213036;28;20555;-78
2022/01/05 02:16:02;;;;;;;13.02;2.00;;;5.70;99.90;;;;;;4196616;28;20527;-77
2022/01/05 02:20:17;;;;;;;11.05;2.28;;;5.50;99.90;;;;;;4214373;28;20486;-79
2022/01/05 02:22:19;;;;;;;9.70;1.80;;;5.30;99.90;;;;;;4207881;28;20051;-78
2022/01/05 02:24:21;;;;;;;9.88;2.00;;;5.20;99.90;;;;;;4213108;28;20542;-78
2022/01/05 02:26:23;;;;;;;14.70;2.10;;;5.00;99.90;;;;;;4209473;28;20052;-79
2022/01/05 02:28:25;;;;;;;9.13;1.25;;;4.90;99.90;;;;;;4207073;28;20056;-80
2022/01/05 02:30:29;;;;;;;15.02;2.20;;;4.80;99.90;;;;;;4230971;28;20119;-80
2022/01/05 02:32:31;;;;;;;10.55;2.53;;;4.70;99.90;;;;;;4226084;28;20044;-78
2022/01/05 02:34:34;;;;;;;14.80;2.42;;;4.50;99.90;;;;;;4213879;28;20091;-78
2022/01/05 02:36:36;;;;;;;23.58;2.78;;;4.40;99.90;;;;;;4213311;28;20087;-79
2022/01/05 02:38:37;;;;;;;14.77;3.00;;;4.60;99.90;;;;;;4228580;28;20079;-79
2022/01/05 02:40:39;;;;;;;16.27;2.80;;;4.60;99.90;;;;;;4213258;28;20127;-78
2022/01/05 02:42:42;;;;;;;22.80;2.40;;;4.90;99.90;;;;;;4222033;28;20074;-77
2022/01/05 02:44:45;;;;;;;22.58;3.05;;;5.20;99.90;;;;;;4222957;28;20074;-82
2022/01/05 02:46:46;;;;;;;14.65;2.10;;;5.60;99.90;;;;;;4214962;28;20071;-80
2022/01/05 02:48:52;;;;;;;18.05;2.80;;;5.80;99.90;;;;;;4213076;28;20075;-80
2022/01/05 02:50:58;;;;;;;12.13;2.42;;;5.80;99.90;;;;;;4213013;28;20474;-81
2022/01/05 02:53:00;;;;;;;13.95;2.33;;;5.90;99.90;;;;;;4219867;28;20060;-77
2022/01/05 02:55:03;;;;;;;14.60;2.17;;;6.00;99.90;;;;;;4229635;28;20047;-80
2022/01/05 02:57:05;;;;;;;19.92;2.58;;;5.90;99.90;;;;;;4225236;28;20479;-77
2022/01/05 02:59:07;;;;;;;13.05;2.30;;;5.80;99.90;;;;;;4212986;28;20075;-78
2022/01/05 03:01:09;;;;;;;19.75;2.90;;;6.00;99.90;;;;;;4212620;28;20181;-79
2022/01/05 03:03:11;;;;;;;12.23;2.38;;;6.00;99.90;;;;;;4212950;28;20044;-81
2022/01/05 03:05:14;;;;;;;16.60;2.33;;;6.00;99.90;;;;;;4212202;28;20135;-78
2022/01/05 03:07:16;;;;;;;12.40;2.20;;;6.10;99.90;;;;;;4218606;28;20075;-78
2022/01/05 03:09:18;;;;;;;19.02;2.72;;;6.10;99.90;;;;;;4212815;28;20107;-80
2022/01/05 03:11:20;;;;;;;15.85;2.90;;;6.00;99.90;;;;;;4212744;28;20052;-80
2022/01/05 03:13:25;;;;;;;12.45;2.70;;;6.10;99.90;;;;;;4220254;28;20732;-78
2022/01/05 03:15:28;;;;;;;23.27;3.47;;;6.10;99.90;;;;;;4217121;28;20145;-78
2022/01/05 03:17:30;;;;;;;13.48;2.47;;;6.20;99.90;;;;;;4214601;28;20063;-82
2022/01/05 03:19:32;;;;;;;13.50;1.75;;;6.20;99.90;;;;;;4214382;28;20048;-78
2022/01/05 03:21:34;;;;;;;11.48;2.10;;;6.20;99.90;;;;;;4220960;28;20040;-79
2022/01/05 03:23:36;;;;;;;14.77;2.42;;;6.20;99.90;;;;;;4229559;28;20130;-78
2022/01/05 03:25:39;;;;;;;15.13;2.80;;;6.30;99.90;;;;;;4229403;28;20139;-79
2022/01/05 03:27:41;;;;;;;19.30;2.45;;;6.40;99.90;;;;;;4224084;28;20523;-78
2022/01/05 03:29:43;;;;;;;16.17;2.50;;;6.40;99.90;;;;;;4222229;28;20859;-77
2022/01/05 03:31:45;;;;;;;17.17;2.50;;;6.40;99.90;;;;;;4214031;28;20082;-78
2022/01/05 03:33:47;;;;;;;12.57;2.20;;;6.40;99.90;;;;;;4228903;28;20079;-79
2022/01/05 03:35:49;;;;;;;18.60;3.45;;;6.40;99.90;;;;;;4229582;28;20063;-78
2022/01/05 03:37:51;;;;;;;15.32;2.20;;;6.30;99.90;;;;;;4227433;28;20046;-79
2022/01/05 03:39:53;;;;;;;9.27;2.10;;;6.20;99.90;;;;;;4223369;28;20078;-79
2022/01/05 03:41:55;;;;;;;17.20;2.13;;;6.30;99.90;;;;;;4212410;28;20144;-78
2022/01/05 03:43:57;;;;;;;14.00;2.28;;;6.20;99.90;;;;;;4211045;28;20044;-77
2022/01/05 03:45:59;;;;;;;23.77;2.35;;;6.20;99.90;;;;;;4223694;28;20114;-77
2022/01/05 03:48:02;;;;;;;14.50;2.10;;;6.20;99.90;;;;;;4230208;28;20144;-78
2022/01/05 03:50:04;;;;;;;10.73;2.15;;;6.20;99.90;;;;;;4229278;28;20044;-80
2022/01/05 03:52:06;;;;;;;25.58;2.60;;;6.30;99.90;;;;;;4227321;28;20040;-77
2022/01/05 03:54:08;;;;;;;16.13;2.10;;;6.40;99.90;;;;;;4224532;28;20086;-78
2022/01/05 03:56:11;;;;;;;15.85;2.38;;;6.30;99.90;;;;;;4216851;28;20044;-78
2022/01/05 03:58:14;;;;;;;17.88;2.33;;;6.30;99.90;;;;;;4215272;28;20719;-78
2022/01/05 04:00:16;;;;;;;14.32;2.05;;;6.20;99.90;;;;;;4215729;28;20066;-78
2022/01/05 04:02:20;;;;;;;16.05;2.63;;;6.00;99.90;;;;;;4215472;28;20087;-78
2022/01/05 04:04:22;;;;;;;11.95;2.30;;;6.10;99.90;;;;;;4215656;28;20090;-77
2022/01/05 04:06:24;;;;;;;17.50;2.20;;;6.10;99.90;;;;;;4223520;28;20079;-78
2022/01/05 04:08:25;;;;;;;17.70;2.60;;;6.10;99.90;;;;;;4220162;28;20423;-79
2022/01/05 04:10:27;;;;;;;12.88;2.03;;;6.20;99.90;;;;;;4215393;28;20051;-79
2022/01/05 04:12:30;;;;;;;14.27;2.03;;;6.30;99.90;;;;;;4232136;28;20537;-78
2022/01/05 04:14:32;;;;;;;11.80;2.55;;;6.40;99.90;;;;;;4221425;28;20051;-78
2022/01/05 04:16:37;;;;;;;14.95;2.35;;;6.40;99.90;;;;;;4214902;28;20056;-79
2022/01/05 04:18:39;;;;;;;16.98;2.90;;;6.50;99.90;;;;;;4215095;28;20109;-81
2022/01/05 04:20:42;;;;;;;21.00;2.85;;;6.40;99.90;;;;;;4214680;28;20044;-79
2022/01/05 04:22:44;;;;;;;15.98;2.65;;;6.40;99.90;;;;;;4226915;28;20046;-78
2022/01/05 04:24:46;;;;;;;20.08;2.80;;;6.40;99.90;;;;;;4215332;28;20432;-79
2022/01/05 04:26:48;;;;;;;20.45;2.67;;;6.40;99.90;;;;;;4215054;28;20067;-79
2022/01/05 04:28:50;;;;;;;14.32;2.85;;;6.30;99.90;;;;;;4220804;28;20070;-78
2022/01/05 04:30:52;;;;;;;12.80;3.17;;;6.50;99.90;;;;;;4224185;28;20057;-79
2022/01/05 04:32:54;;;;;;;24.95;3.03;;;6.60;99.90;;;;;;4215246;28;20119;-79
2022/01/05 04:35:16;;;;;;;12.48;2.63;;;6.50;99.90;;;;;;4228978;28;20052;-79
2022/01/05 04:37:33;;;;;;;17.42;2.78;;;6.50;99.90;;;;;;4231645;28;20127;-83
2022/01/05 04:39:36;;;;;;;16.27;2.08;;;6.40;99.90;;;;;;4232311;27;20074;-78
2022/01/05 04:41:38;;;;;;;11.30;2.28;;;6.40;99.90;;;;;;4218096;28;20075;-78
2022/01/05 04:43:40;;;;;;;12.27;2.70;;;6.50;99.90;;;;;;4230658;28;20040;-81
2022/01/05 04:45:41;;;;;;;14.93;2.53;;;6.60;99.90;;;;;;4231723;28;20137;-78
2022/01/05 04:47:44;;;;;;;16.60;2.63;;;6.60;99.90;;;;;;4232444;28;20097;-76
2022/01/05 04:49:46;;;;;;;30.23;2.60;;;6.60;99.90;;;;;;4230239;28;20078;-80
2022/01/05 04:51:48;;;;;;;18.08;2.45;;;6.60;99.90;;;;;;4215466;28;20054;-77
2022/01/05 04:53:51;;;;;;;33.58;3.17;;;6.50;99.90;;;;;;4214793;28;20040;-78
2022/01/05 04:55:53;;;;;;;17.92;2.78;;;6.40;99.90;;;;;;4215125;28;20101;-76
2022/01/05 04:58:00;;;;;;;13.48;2.35;;;6.40;99.90;;;;;;4227539;28;20117;-81
2022/01/05 05:00:04;;;;;;;29.55;3.10;;;6.40;99.90;;;;;;4214734;28;20055;-78
2022/01/05 05:02:06;;;;;;;18.08;3.20;;;6.60;99.90;;;;;;4214588;28;20431;-78
2022/01/05 05:04:08;;;;;;;14.57;2.53;;;6.60;99.90;;;;;;4214195;28;20110;-78
2022/01/05 05:06:10;;;;;;;18.52;2.70;;;6.60;99.90;;;;;;4221463;28;20051;-79
2022/01/05 05:08:12;;;;;;;20.58;2.30;;;6.60;99.90;;;;;;4217592;28;20051;-80
2022/01/05 05:10:14;;;;;;;25.77;3.13;;;6.60;99.90;;;;;;4214309;28;20047;-78
2022/01/05 05:12:16;;;;;;;26.92;2.92;;;6.60;99.90;;;;;;4225658;28;20127;-79
2022/01/05 05:14:17;;;;;;;21.02;3.53;;;6.60;99.90;;;;;;4229074;28;20095;-77
2022/01/05 05:16:20;;;;;;;31.17;3.20;;;6.50;99.90;;;;;;4224088;28;20139;-81
2022/01/05 05:18:21;;;;;;;24.55;3.63;;;6.50;99.90;;;;;;4213875;28;20707;-77
2022/01/05 05:20:23;;;;;;;26.20;3.63;;;6.40;99.90;;;;;;4217075;28;20429;-78
2022/01/05 05:22:25;;;;;;;22.65;3.88;;;6.50;99.90;;;;;;4213978;28;20075;-78
2022/01/05 05:24:27;;;;;;;14.02;2.55;;;6.50;99.90;;;;;;4214188;28;20091;-79
2022/01/05 05:26:29;;;;;;;24.75;3.45;;;6.50;99.90;;;;;;4228572;27;20075;-78
2022/01/05 05:28:31;;;;;;;20.00;3.42;;;6.50;99.90;;;;;;4230745;28;20086;-79
2022/01/05 05:30:34;;;;;;;22.20;2.85;;;6.60;99.90;;;;;;4226088;27;20086;-78
2022/01/05 05:32:36;;;;;;;25.10;3.08;;;6.50;99.90;;;;;;4227700;28;20048;-79
2022/01/05 05:34:38;;;;;;;22.85;3.05;;;6.60;99.90;;;;;;4230868;28;20199;-78
2022/01/05 05:36:40;;;;;;;17.75;2.88;;;6.60;99.90;;;;;;4231762;28;20052;-79
2022/01/05 05:38:42;;;;;;;27.58;3.67;;;6.60;99.90;;;;;;4231691;27;20134;-78
2022/01/05 05:40:44;;;;;;;21.42;2.60;;;6.50;99.90;;;;;;4226524;28;20063;-79
2022/01/05 05:42:46;;;;;;;27.02;2.97;;;6.60;99.90;;;;;;4215998;28;20076;-79
2022/01/05 05:44:48;;;;;;;30.90;3.25;;;6.60;99.90;;;;;;4215114;28;20127;-79
2022/01/05 05:46:50;;;;;;;25.75;3.58;;;6.70;99.90;;;;;;4225349;28;20078;-79
2022/01/05 05:48:52;;;;;;;29.85;3.08;;;6.60;99.90;;;;;;4227507;28;20048;-78
2022/01/05 05:50:54;;;;;;;31.20;3.15;;;6.50;99.90;;;;;;4230233;28;20086;-79
2022/01/05 05:52:56;;;;;;;23.45;3.15;;;6.40;99.90;;;;;;4224503;28;20075;-78
2022/01/05 05:54:58;;;;;;;18.83;2.60;;;6.40;99.90;;;;;;4223977;28;20044;-79
2022/01/05 05:57:14;;;;;;;27.80;3.28;;;6.40;99.90;;;;;;4226811;28;20044;-82
2022/01/05 05:59:15;;;;;;;25.05;2.85;;;6.30;99.90;;;;;;4230294;28;20075;-78
2022/01/05 06:01:18;;;;;;;20.63;3.03;;;6.40;99.90;;;;;;4231680;28;20056;-78
2022/01/05 06:03:20;;;;;;;26.27;2.78;;;6.60;99.90;;;;;;4230682;28;20048;-79
2022/01/05 06:05:22;;;;;;;21.92;2.63;;;6.60;99.90;;;;;;4227739;28;20138;-78
2022/01/05 06:07:24;;;;;;;25.45;3.42;;;6.70;99.90;;;;;;4229890;28;20708;-79
2022/01/05 06:09:26;;;;;;;24.05;2.88;;;6.70;99.90;;;;;;4230162;28;20161;-80
2022/01/05 06:11:28;;;;;;;25.10;3.40;;;6.70;99.90;;;;;;4230269;28;20052;-79
2022/01/05 06:13:30;;;;;;;24.30;3.45;;;6.70;99.90;;;;;;4229093;28;20181;-79
2022/01/05 06:15:32;;;;;;;18.10;2.22;;;6.70;99.90;;;;;;4212425;28;20055;-79
2022/01/05 06:17:34;;;;;;;28.42;2.45;;;6.70;99.90;;;;;;4212868;28;20134;-79
2022/01/05 06:19:36;;;;;;;16.50;2.97;;;6.70;99.90;;;;;;4213057;28;20071;-78
2022/01/05 06:21:38;;;;;;;17.92;2.33;;;6.80;99.90;;;;;;4220545;28;20071;-77
2022/01/05 06:23:40;;;;;;;20.60;2.45;;;6.80;99.90;;;;;;4229732;28;20091;-78
2022/01/05 06:25:42;;;;;;;21.67;3.05;;;6.80;99.90;;;;;;4227666;28;20047;-78
2022/01/05 06:27:44;;;;;;;15.52;2.05;;;6.90;99.90;;;;;;4221552;28;20534;-78
2022/01/05 06:29:46;;;;;;;26.65;3.03;;;6.90;99.90;;;;;;4213171;28;20090;-77
2022/01/05 06:31:48;;;;;;;23.38;3.42;;;6.90;99.90;;;;;;4216826;28;20086;-77
2022/01/05 06:33:50;;;;;;;24.75;3.05;;;7.00;99.90;;;;;;4227599;28;20483;-78
2022/01/05 06:35:51;;;;;;;25.92;2.83;;;7.00;99.90;;;;;;4228181;28;20082;-77
2022/01/05 06:37:53;;;;;;;21.75;2.40;;;6.90;99.90;;;;;;4220760;28;20528;-78
2022/01/05 06:39:56;;;;;;;20.10;3.03;;;6.90;99.90;;;;;;4215015;28;20055;-78
2022/01/05 06:41:58;;;;;;;20.63;2.40;;;6.80;99.90;;;;;;4212892;28;20087;-79
2022/01/05 06:44:00;;;;;;;17.77;2.40;;;6.80;99.90;;;;;;4213116;28;20404;-78
2022/01/05 06:46:02;;;;;;;15.57;2.20;;;6.70;99.90;;;;;;4215782;28;20071;-79
2022/01/05 06:48:04;;;;;;;21.90;2.50;;;6.70;99.90;;;;;;4229228;28;20043;-80
2022/01/05 06:50:07;;;;;;;24.95;3.47;;;6.60;99.90;;;;;;4229691;28;20118;-78
2022/01/05 06:52:11;;;;;;;26.02;3.05;;;6.70;99.90;;;;;;4227846;28;20118;-78
2022/01/05 06:54:13;;;;;;;15.35;2.65;;;6.70;99.90;;;;;;4212295;28;20048;-79
2022/01/05 06:56:15;;;;;;;30.90;3.20;;;6.70;99.90;;;;;;4212493;28;20047;-75
2022/01/05 06:58:17;;;;;;;9.18;1.75;;;6.70;99.90;;;;;;4212559;28;20083;-77
2022/01/05 07:00:22;;;;;;;15.40;2.50;;;6.60;99.90;;;;;;4219316;28;20081;-78
2022/01/05 07:02:24;;;;;;;20.33;2.40;;;6.70;99.90;;;;;;4230198;28;20086;-77
2022/01/05 07:04:26;;;;;;;15.23;2.80;;;6.70;99.90;;;;;;4228430;28;20143;-78
2022/01/05 07:06:28;;;;;;;20.75;2.22;;;6.70;99.90;;;;;;4221675;28;20117;-78
2022/01/05 07:08:30;;;;;;;20.75;2.35;;;6.70;99.90;;;;;;4229300;28;20126;-78
2022/01/05 07:10:32;;;;;;;23.20;4.57;;;6.70;99.90;;;;;;4212592;28;20078;-77
2022/01/05 07:12:35;;;;;;;23.92;3.05;;;6.70;99.90;;;;;;4212245;28;20036;-78
2022/01/05 07:14:37;;;;;;;15.52;2.85;;;6.70;99.90;;;;;;4219989;28;20075;-78
2022/01/05 07:16:39;;;;;;;13.57;2.80;;;6.70;99.90;;;;;;4229563;28;20044;-78
2022/01/05 07:18:41;;;;;;;15.88;2.90;;;6.50;99.90;;;;;;4227067;28;20083;-79
2022/01/05 07:20:45;;;;;;;17.48;2.33;;;6.30;99.90;;;;;;4217311;27;20047;-77
2022/01/05 07:22:47;;;;;;;14.60;3.22;;;6.20;99.90;;;;;;4213332;28;20059;-78
2022/01/05 07:24:49;;;;;;;18.85;2.47;;;6.00;99.90;;;;;;4218410;28;20047;-77
2022/01/05 07:26:51;;;;;;;14.00;2.47;;;5.90;99.90;;;;;;4212985;28;20040;-76
2022/01/05 07:28:53;;;;;;;18.25;2.55;;;5.90;99.90;;;;;;4215642;28;20067;-80
2022/01/05 07:30:55;;;;;;;14.70;2.38;;;6.00;99.90;;;;;;4217081;28;20044;-77
2022/01/05 07:32:57;;;;;;;17.73;2.85;;;6.00;99.90;;;;;;4220434;28;20052;-79
2022/01/05 07:34:59;;;;;;;20.13;2.60;;;6.20;99.90;;;;;;4227674;28;20074;-77
2022/01/05 07:37:01;;;;;;;12.93;2.47;;;6.50;99.90;;;;;;4215824;28;20040;-78
2022/01/05 07:39:05;;;;;;;15.32;3.03;;;6.80;99.90;;;;;;4216529;28;20451;-78
2022/01/05 07:41:06;;;;;;;20.80;2.53;;;6.90;99.90;;;;;;4226059;27;20043;-76
2022/01/05 07:43:08;;;;;;;21.65;2.33;;;7.10;99.90;;;;;;4227599;28;20565;-78
2022/01/05 07:45:11;;;;;;;15.73;2.53;;;7.10;99.90;;;;;;4222270;28;20039;-77
2022/01/05 07:47:13;;;;;;;27.95;2.75;;;7.10;99.90;;;;;;4232548;28;20047;-77
2022/01/05 07:49:15;;;;;;;15.90;2.03;;;7.20;99.90;;;;;;4230629;28;20060;-78
2022/01/05 07:51:17;;;;;;;16.65;2.40;;;7.20;99.90;;;;;;4221044;28;20072;-78
2022/01/05 07:53:19;;;;;;;23.55;3.25;;;7.20;99.90;;;;;;4230413;28;20090;-77
2022/01/05 07:55:21;;;;;;;18.42;2.72;;;7.20;99.90;;;;;;4232419;28;20403;-78
2022/01/05 07:57:23;;;;;;;17.17;2.53;;;7.30;99.90;;;;;;4230158;28;20094;-77
2022/01/05 07:59:25;;;;;;;13.38;2.78;;;7.30;99.90;;;;;;4225696;28;20113;-77
2022/01/05 08:01:27;;;;;;;22.83;2.63;;;7.30;99.90;;;;;;4215524;28;20410;-77
2022/01/05 08:03:33;;;;;;;19.15;2.22;;;7.30;99.90;;;;;;4219701;28;20139;-78
2022/01/05 08:05:54;;;;;;;16.35;2.35;;;7.40;99.90;;;;;;4227930;28;20056;-80
2022/01/05 08:07:56;;;;;;;18.35;2.53;;;7.40;99.90;;;;;;4215028;28;20131;-77
2022/01/05 08:09:58;;;;;;;14.57;2.13;;;7.40;99.90;;;;;;4221565;28;20059;-78
2022/01/05 08:11:59;;;;;;;20.30;2.30;;;7.30;99.90;;;;;;4232013;28;20079;-78
2022/01/05 08:14:02;;;;;;;15.43;3.10;;;7.30;99.90;;;;;;4233429;28;20048;-77
2022/01/05 08:16:04;;;;;;;16.30;2.28;;;7.40;99.90;;;;;;4229341;28;20590;-78
2022/01/05 08:18:06;;;;;;;18.73;2.78;;;7.40;99.90;;;;;;4229584;28;20051;-78
2022/01/05 08:20:12;;;;;;;15.30;1.90;;;7.30;99.90;;;;;;4231872;28;20098;-77
2022/01/05 08:22:14;;;;;;;15.50;2.33;;;7.40;99.90;;;;;;4229722;28;20089;-78
2022/01/05 08:24:15;;;;;;;13.65;2.53;;;7.40;99.90;;;;;;4226350;28;20079;-78
2022/01/05 08:26:17;;;;;;;22.15;2.28;;;7.40;99.90;;;;;;4214662;28;20090;-78
2022/01/05 08:28:20;;;;;;;21.95;2.72;;;7.40;99.90;;;;;;4215076;28;20500;-77
2022/01/05 08:30:24;;;;;;;12.60;2.15;;;7.30;99.90;;;;;;4215034;28;20535;-77
2022/01/05 08:32:26;;;;;;;14.32;3.00;;;7.30;99.90;;;;;;4224507;28;20039;-78
2022/01/05 08:34:30;;;;;;;20.85;2.80;;;7.40;99.90;;;;;;4222813;28;20071;-78
2022/01/05 08:36:32;;;;;;;10.57;1.58;;;7.40;99.90;;;;;;4230963;28;20691;-78
2022/01/05 08:38:35;;;;;;;15.48;1.98;;;7.50;99.90;;;;;;4228868;28;20078;-77
2022/01/05 08:40:37;;;;;;;16.95;2.08;;;7.50;99.90;;;;;;4221281;28;20064;-77
2022/01/05 08:42:40;;;;;;;22.70;2.17;;;7.60;99.90;;;;;;4231966;27;20079;-77
2022/01/05 08:44:42;;;;;;;14.50;1.85;;;7.60;99.90;;;;;;4230774;28;20047;-77
2022/01/05 08:46:44;;;;;;;16.10;2.03;;;7.70;99.90;;;;;;4230506;28;20067;-77
2022/01/05 08:48:46;;;;;;;21.65;2.35;;;7.70;99.90;;;;;;4222142;28;20044;-79
2022/01/05 08:50:48;;;;;;;13.27;2.53;;;7.70;99.90;;;;;;4213159;28;20079;-78
2022/01/05 08:52:51;;;;;;;16.98;2.78;;;7.70;99.90;;;;;;4224487;28;20451;-78
2022/01/05 08:54:53;;;;;;;16.20;2.30;;;7.70;99.90;;;;;;4229627;28;20051;-76
2022/01/05 08:56:55;;;;;;;8.27;2.00;;;7.80;99.90;;;;;;4228930;28;20148;-77
2022/01/05 08:58:58;;;;;;;15.40;2.08;;;7.80;99.90;;;;;;4226618;28;20075;-77
2022/01/05 09:01:00;;;;;;;27.58;2.90;;;7.80;99.90;;;;;;4222345;28;20142;-78
2022/01/05 09:03:03;;;;;;;12.75;2.17;;;7.80;99.90;;;;;;4212527;28;20103;-78
2022/01/05 09:05:06;;;;;;;19.27;3.00;;;7.70;99.90;;;;;;4211598;28;20059;-78
2022/01/05 09:07:09;;;;;;;14.93;2.97;;;7.70;99.90;;;;;;4211941;28;20102;-78
2022/01/05 09:09:10;;;;;;;16.17;2.20;;;7.60;99.90;;;;;;4215743;28;20071;-77
2022/01/05 09:11:12;;;;;;;15.20;2.50;;;7.50;99.90;;;;;;4218438;28;20051;-78
2022/01/05 09:13:16;;;;;;;15.32;1.88;;;7.40;99.90;;;;;;4229286;28;20139;-79
2022/01/05 09:15:18;;;;;;;15.55;2.58;;;7.40;99.90;;;;;;4228899;28;20489;-77
2022/01/05 09:17:20;;;;;;;15.43;3.25;;;7.30;99.90;;;;;;4228638;28;20126;-79
2022/01/05 09:19:22;;;;;;;15.43;2.47;;;7.30;99.90;;;;;;4226229;28;20481;-78
2022/01/05 09:21:24;;;;;;;14.25;1.90;;;7.30;99.90;;;;;;4211458;28;20044;-78
2022/01/05 09:23:26;;;;;;;7.35;1.40;;;7.50;99.90;;;;;;4210412;28;20071;-76
2022/01/05 09:25:28;;;;;;;15.07;2.03;;;7.60;99.90;;;;;;4227516;28;20109;-78
2022/01/05 09:27:30;;;;;;;11.07;1.70;;;7.70;99.90;;;;;;4228271;28;20090;-77
2022/01/05 09:29:33;;;;;;;15.07;1.83;;;7.70;99.90;;;;;;4228769;28;20050;-78
2022/01/05 09:31:35;;;;;;;11.52;2.53;;;7.80;99.90;;;;;;4213818;28;20075;-78
2022/01/05 09:33:37;;;;;;;20.55;2.22;;;7.80;99.90;;;;;;4223856;28;20051;-77
2022/01/05 09:35:39;;;;;;;14.40;2.55;;;7.90;99.90;;;;;;4218207;28;20049;-77
2022/01/05 09:42:37;;;;;;;8.80;1.60;;;7.90;99.90;;;;;;4213533;27;20423;-77
2022/01/05 09:44:43;;;;;;;11.40;1.85;;;7.80;99.90;;;;;;4212115;28;20757;-79
2022/01/05 09:47:08;;;;;;;14.48;1.95;;;7.70;99.90;;;;;;4217641;28;20086;-77
2022/01/05 09:49:11;;;;;;;15.82;1.70;;;7.60;99.90;;;;;;4214141;28;20048;-77
2022/01/05 09:51:19;;;;;;;11.75;1.83;;;7.60;99.90;;;;;;4212829;28;20044;-77
2022/01/05 09:53:23;;;;;;;20.27;2.40;;;7.50;99.90;;;;;;4213347;28;20087;-78
2022/01/05 09:55:25;;;;;;;14.98;2.70;;;7.50;99.90;;;;;;4213300;28;20723;-78
2022/01/05 09:57:28;;;;;;;14.13;2.08;;;7.60;99.90;;;;;;4222224;28;20056;-77
2022/01/05 09:59:34;;;;;;;12.80;2.33;;;7.60;99.90;;;;;;4213796;28;20064;-78
2022/01/05 10:01:37;;;;;;;16.02;1.85;;;7.70;99.90;;;;;;4213566;28;20083;-78
2022/01/05 10:03:39;;;;;;;11.27;2.05;;;7.70;99.90;;;;;;4213554;28;20055;-76
2022/01/05 10:05:46;;;;;;;16.63;2.25;;;7.70;99.90;;;;;;4226740;28;20550;-77
2022/01/05 10:07:48;;;;;;;19.27;3.35;;;7.70;99.90;;;;;;4229737;28;20560;-78
2022/01/05 10:09:51;;;;;;;15.75;2.47;;;7.70;99.90;;;;;;4222045;28;20071;-77
2022/01/05 10:11:53;;;;;;;15.73;2.47;;;7.70;99.90;;;;;;4218568;28;20044;-77
2022/01/05 10:13:55;;;;;;;13.13;2.00;;;7.70;99.90;;;;;;4228322;28;20048;-78
2022/01/05 10:15:57;;;;;;;11.25;1.40;;;7.50;99.90;;;;;;4220581;28;20048;-78
2022/01/05 10:18:16;;;;;;;16.00;2.92;;;7.40;99.90;;;;;;4223681;28;20127;-78
2022/01/05 10:20:21;;;;;;;30.05;12.40;;;7.30;99.90;;;;;;4215772;28;20048;-76
2022/01/05 10:22:33;;;;;;;33.78;10.60;;;7.30;99.90;;;;;;4212988;28;20044;-79
2022/01/05 10:24:47;;;;;;;22.80;5.05;;;7.30;99.90;;;;;;4213409;28;20071;-77
2022/01/05 10:26:49;;;;;;;22.10;5.18;;;7.30;99.90;;;;;;4217430;28;20043;-77
2022/01/05 10:28:53;;;;;;;14.23;3.70;;;7.40;99.90;;;;;;4229960;28;20082;-78
2022/01/05 10:30:55;;;;;;;16.95;3.50;;;7.40;99.90;;;;;;4230505;28;20442;-77
2022/01/05 10:32:57;;;;;;;25.33;7.28;;;7.50;99.90;;;;;;4227831;28;20052;-77
2022/01/05 10:35:11;;;;;;;22.52;7.65;;;7.60;99.90;;;;;;4222012;28;20053;-77
2022/01/05 10:37:14;;;;;;;25.13;5.97;;;7.60;99.90;;;;;;4211498;28;20082;-77
2022/01/05 10:39:22;;;;;;;30.63;5.20;;;7.60;99.90;;;;;;4228433;28;20546;-77
2022/01/05 10:41:26;;;;;;;29.80;5.40;;;7.70;99.90;;;;;;4215946;28;20205;-76
2022/01/05 10:43:28;;;;;;;24.58;8.30;;;7.80;99.90;;;;;;4218267;28;20481;-76
2022/01/05 10:45:49;;;;;;;15.55;3.03;;;7.80;99.90;;;;;;4219882;28;20135;-76
2022/01/05 10:48:00;;;;;;;;;;;7.80;99.90;;;;;;4227400;28;20114;-78